Flight Track Log - Related Links

Times and Time Zones

All times are in EDT time to prevent confusion due to time zone crossing. See the VRD720 flight status page for this flight to view local times or setup timezone preferences in your user account.

Time Position Orientation Groundspeed Altitude Reporting Facility
EDT Latitude Longitude Course Direction KTS MPH feet Rate Location/Type
Tue 01:57:25 AM 37.6160 -122.3810 115° Southeast 17 20  Level FlightAware ADS-B
Tue 01:59:54 AM 37.6220 -122.3830 345° North 29 33 49 Level FlightAware ADS-B
Tue 02:01:05 AM 37.6220 -122.3870 270° West 29 33 59 Level FlightAware ADS-B
Tue 02:03:00 AM 37.5994 -122.0823 50° Northeast  Level Estimated
Tue 02:03:44 AM 37.6270 -122.3980 50° Northeast 28 32  Level FlightAware ADS-B
Tue 02:05:25 AM 37.6280 -122.3950 67° East 2 2 88 Level FlightAware ADS-B
Tue 02:08:00 AM 37.8016 -122.0348 54° Northeast  Level FlightAware Approximate
Tue 02:09:00 AM 37.8735 -121.9031 58° Northeast  Level FlightAware Approximate
Tue 02:10:00 AM 37.9271 -121.7625 58° Northeast  Level FlightAware Approximate
Tue 02:11:00 AM 37.9525 -121.6065 80° East  Level FlightAware Approximate
Tue 02:11:42 AM 37.6150 -122.3600 117° Southeast 159 183 700  Level FlightAware ADS-B
Tue 02:11:57 AM 37.6104 -122.3470 114° Southeast 161 185 1,200 1,742 Climbing FlightAware ADS-B
Tue 02:12:13 AM 37.6059 -122.3320 111° Southeast 179 206 1,600 1,273 Climbing FlightAware ADS-B
Tue 02:12:30 AM 37.6018 -122.3140 106° East 198 228 1,900 938 Climbing FlightAware ADS-B
Tue 02:12:45 AM 37.5977 -122.2960 106° East 225 259 2,100 1,000 Climbing FlightAware ADS-B
Tue 02:13:00 AM 37.5931 -122.2750 105° East 249 287 2,400 1,742 Climbing FlightAware ADS-B
Tue 02:13:16 AM 37.5879 -122.2520 106° East 264 304 3,000 2,516 Climbing FlightAware ADS-B
Tue 02:13:31 AM 37.5826 -122.2290 106° East 273 314 3,700 3,000 Climbing FlightAware ADS-B
Tue 02:13:46 AM 37.5773 -122.2060 106° East 277 319 4,500 2,710 Climbing FlightAware ADS-B
Tue 02:14:02 AM 37.5713 -122.1810 107° East 284 327 5,100 2,455 Climbing FlightAware ADS-B
Tue 02:14:08 AM 37.5692 -122.1720 106° East 287 330 5,400 2,500 Climbing FlightAware ADS-B
Tue 02:14:14 AM 37.5671 -122.1620 105° East 290 334 5,600 2,400 Climbing FlightAware ADS-B
Tue 02:14:18 AM 37.5662 -122.1550 99° East 293 337 5,800 3,429 Climbing FlightAware ADS-B
Tue 02:14:21 AM 37.5658 -122.1490 95° East 295 339 6,000 2,571 Climbing FlightAware ADS-B
Tue 02:14:25 AM 37.5659 -122.1430 89° East 296 341 6,100 2,250 Climbing FlightAware ADS-B
Tue 02:14:29 AM 37.5666 -122.1360 83° East 297 342 6,300 3,000 Climbing FlightAware ADS-B
Tue 02:14:33 AM 37.5678 -122.1300 76° East 297 342 6,500 3,429 Climbing FlightAware ADS-B
Tue 02:14:36 AM 37.5694 -122.1240 71° East 297 342 6,700 3,000 Climbing FlightAware ADS-B
Tue 02:14:39 AM 37.5711 -122.1190 67° East 297 342 6,800 3,000 Climbing FlightAware ADS-B
Tue 02:14:42 AM 37.5731 -122.1150 58° Northeast 297 342 7,000 2,842 Climbing FlightAware ADS-B
Tue 02:14:58 AM 37.5839 -122.0910 60° Northeast 301 346 7,700 2,710 Climbing FlightAware ADS-B
Tue 02:15:13 AM 37.5949 -122.0680 59° Northeast 305 351 8,400 2,323 Climbing FlightAware ADS-B
Tue 02:15:29 AM 37.6062 -122.0440 59° Northeast 315 362 8,900 2,129 Climbing FlightAware ADS-B
Tue 02:15:44 AM 37.6177 -122.0200 59° Northeast 321 369 9,500 2,400 Climbing FlightAware ADS-B
Tue 02:16:14 AM 37.6411 -121.9700 59° Northeast 333 383 10,700 1,700 Climbing FlightAware ADS-B
Tue 02:16:44 AM 37.6657 -121.9170 60° Northeast 364 419 11,200 1,300 Climbing FlightAware ADS-B
Tue 02:17:14 AM 37.6918 -121.8600 60° Northeast 386 444 12,000 1,967 Climbing FlightAware ADS-B
Tue 02:17:45 AM 37.7193 -121.7990 60° Northeast 394 453 13,200 2,323 Climbing FlightAware ADS-B
Tue 02:18:16 AM 37.7480 -121.7360 60° Northeast 400 460 14,400 2,344 Climbing FlightAware ADS-B
Tue 02:18:49 AM 37.7775 -121.6700 60° Northeast 403 464 15,700 1,941 Climbing FlightAware ADS-B
Tue 02:19:24 AM 37.8105 -121.5970 60° Northeast 414 476 16,600 1,881 Climbing FlightAware ADS-B
Tue 02:19:56 AM 37.8411 -121.5290 60° Northeast 414 476 17,800 1,781 Climbing FlightAware ADS-B
Tue 02:20:28 AM 37.8722 -121.4600 60° Northeast 430 495 18,500 1,273 Climbing FlightAware ADS-B
Tue 02:21:02 AM 37.9053 -121.3860 60° Northeast 441 507 19,200 1,385 Climbing FlightAware ADS-B
Tue 02:21:33 AM 37.9369 -121.3150 61° Northeast 449 517 20,000 1,417 Climbing FlightAware ADS-B
Tue 02:22:14 AM 37.9793 -121.2200 60° Northeast 455 524 20,900 1,342 Climbing FlightAware ADS-B
Tue 02:22:49 AM 38.0166 -121.1360 61° Northeast 465 535 21,700 1,590 Climbing FlightAware ADS-B
Tue 02:23:37 AM 38.0610 -121.0200 64° Northeast 464 534 23,100 1,636 Climbing FlightAware ADS-B
Tue 02:24:17 AM 38.0860 -120.9150 73° East 467 537 24,100 1,357 Climbing FlightAware ADS-B
Tue 02:25:01 AM 38.1030 -120.7980 80° East 473 544 25,000 1,172 Climbing FlightAware ADS-B
Tue 02:25:44 AM 38.1180 -120.6810 81° East 480 552 25,800 1,171 Climbing FlightAware ADS-B
Tue 02:26:23 AM 38.1330 -120.5700 80° East 483 556 26,600 1,157 Climbing FlightAware ADS-B
Tue 02:27:07 AM 38.1500 -120.4460 80° East 489 563 27,400 1,047 Climbing FlightAware ADS-B
Tue 02:27:49 AM 38.1650 -120.3260 81° East 496 571 28,100 1,024 Climbing FlightAware ADS-B
Tue 02:28:29 AM 38.1800 -120.2130 80° East 500 575 28,800 1,050 Climbing FlightAware ADS-B
Tue 02:29:09 AM 38.1950 -120.0940 81° East 502 578 29,500 1,143 Climbing FlightAware ADS-B
Tue 02:29:53 AM 38.2120 -119.9660 80° East 503 579 30,400 1,213 Climbing FlightAware ADS-B
Tue 02:30:38 AM 38.2280 -119.8370 81° East 501 577 31,300 1,256 Climbing FlightAware ADS-B
Tue 02:31:19 AM 38.2430 -119.7190 81° East 497 572 32,200 1,259 Climbing FlightAware ADS-B
Tue 02:31:59 AM 38.2570 -119.6030 81° East 493 567 33,000 1,275 Climbing FlightAware ADS-B
Tue 02:32:39 AM 38.2720 -119.4870 81° East 489 563 33,900 1,157 Climbing FlightAware ADS-B
Tue 02:33:22 AM 38.2860 -119.3650 82° East 488 562 34,600 759 Climbing FlightAware ADS-B
Tue 02:34:06 AM 38.3010 -119.2410 81° East 491 565 35,000 286 Climbing FlightAware ADS-B
Tue 02:34:46 AM 38.3150 -119.1270 81° East 489 563 35,000  Level FlightAware ADS-B
Tue 02:35:30 AM 38.3300 -119.0010 81° East 494 568 35,000  Level FlightAware ADS-B
Tue 02:36:12 AM 38.3440 -118.8830 81° East 492 566 35,000  Level FlightAware ADS-B
Tue 02:37:09 AM 38.3610 -118.7380 81° East 491 565 35,000  Level FlightAware ADS-B
Tue 02:37:45 AM 38.3730 -118.6320 82° East 487 560 35,000  Level FlightAware ADS-B
Tue 02:38:28 AM 38.3890 -118.4950 81° East 490 564 35,000  Level FlightAware ADS-B
Tue 02:39:15 AM 38.4040 -118.3630 82° East 489 563 35,000  Level FlightAware ADS-B
Tue 02:39:55 AM 38.4170 -118.2470 82° East 490 564 35,000  Level FlightAware ADS-B
Tue 02:40:39 AM 38.4310 -118.1230 82° East 491 565 35,000  Level FlightAware ADS-B
Tue 02:41:19 AM 38.4440 -118.0070 82° East 492 566 35,000  Level FlightAware ADS-B
Tue 02:42:15 AM 38.4600 -117.8600 82° East 492 566 35,000  Level FlightAware ADS-B
Tue 02:42:51 AM 38.4700 -117.7720 82° East 492 566 35,000  Level FlightAware ADS-B
Tue 02:43:40 AM 38.4830 -117.6520 82° East 492 566 35,000  Level FlightAware ADS-B
Tue 02:44:04 AM 38.4890 -117.5940 82° East 492 566 35,000  Level FlightAware ADS-B
Tue 02:44:53 AM 38.5020 -117.4740 82° East 492 566 35,000  Level FlightAware ADS-B
Tue 02:45:29 AM 38.5120 -117.3860 82° East 492 566 35,000  Level FlightAware ADS-B
Tue 02:46:17 AM 38.5250 -117.2680 82° East 492 566 35,000  Level FlightAware ADS-B
Tue 02:46:54 AM 38.5350 -117.1770 82° East 492 566 35,000  Level FlightAware ADS-B
Tue 02:47:40 AM 38.5470 -117.0650 82° East 492 566 35,000  Level FlightAware ADS-B
Tue 02:48:17 AM 38.5570 -116.9740 82° East 492 566 35,000  Level FlightAware ADS-B
Tue 02:48:54 AM 38.5670 -116.8830 82° East 492 566 35,000  Level FlightAware ADS-B
Tue 02:49:40 AM 38.5800 -116.7710 82° East 492 566 35,000  Level FlightAware ADS-B
Tue 02:50:18 AM 38.5900 -116.6780 82° East 492 566 35,000  Level FlightAware ADS-B
Tue 02:51:06 AM 38.6030 -116.5600 82° East 492 566 35,000  Level FlightAware ADS-B
Tue 02:51:42 AM 38.6120 -116.4720 83° East 492 566 35,000  Level FlightAware ADS-B
Tue 02:52:31 AM 38.4169 -116.0908 83° East 484 557 35,000  Level Oakland Center
Tue 02:53:39 AM 38.4008 -115.9186 97° East 488 562 35,000  Level Salt Lake Center
Tue 02:59:46 AM 38.2960 -114.8350 97° East 494 568 35,000  Level FlightAware ADS-B
Tue 03:00:20 AM 38.2880 -114.7500 97° East 494 568 35,000  Level FlightAware ADS-B
Tue 03:01:08 AM 38.2760 -114.6320 97° East 494 568 35,000  Level FlightAware ADS-B
Tue 03:01:44 AM 38.2680 -114.5440 97° East 494 568 35,000  Level FlightAware ADS-B
Tue 03:02:31 AM 38.2570 -114.4280 97° East 494 568 35,000  Level FlightAware ADS-B
Tue 03:03:14 AM 38.2350 -114.2390 98° East 494 568 35,000  Level FlightAware ADS-B
Tue 03:04:01 AM 38.2260 -114.1280 96° East 494 568 35,000  Level FlightAware ADS-B
Tue 03:04:36 AM 38.2190 -114.0420 96° East 494 568 35,000  Level FlightAware ADS-B
Tue 03:05:23 AM 38.2090 -113.9260 96° East 494 568 35,000  Level FlightAware ADS-B
Tue 03:06:01 AM 38.2020 -113.8330 95° East 494 568 35,000  Level FlightAware ADS-B
Tue 03:06:49 AM 38.1920 -113.7150 96° East 494 568 35,000  Level FlightAware ADS-B
Tue 03:07:26 AM 38.1840 -113.6240 96° East 494 568 35,000  Level FlightAware ADS-B
Tue 03:08:04 AM 38.1770 -113.5310 95° East 494 568 35,000  Level FlightAware ADS-B
Tue 03:08:52 AM 38.1670 -113.4130 96° East 494 568 35,000  Level FlightAware ADS-B
Tue 03:09:27 AM 38.1600 -113.3270 96° East 494 568 35,000  Level FlightAware ADS-B
Tue 03:10:15 AM 38.1500 -113.2090 96° East 494 568 35,000  Level FlightAware ADS-B
Tue 03:10:53 AM 38.1420 -113.1150 96° East 494 568 35,000  Level FlightAware ADS-B
Tue 03:11:39 AM 38.1330 -113.0020 96° East 494 568 35,000  Level FlightAware ADS-B
Tue 03:12:16 AM 38.1250 -112.9120 96° East 494 568 35,000  Level FlightAware ADS-B
Tue 03:13:05 AM 38.1150 -112.7910 96° East 494 568 35,000  Level FlightAware ADS-B
Tue 03:13:49 AM 38.0503 -112.4319 96° East 494 568 35,000  Level Denver Center
Tue 03:14:50 AM 38.0311 -112.2594 98° East 494 568 35,000  Level Denver Center
Tue 03:15:51 AM 38.0100 -112.0850 99° East 497 572 35,000  Level Denver Center
Tue 03:16:51 AM 37.9817 -111.9169 102° East 487 560 35,000  Level Denver Center
Tue 03:17:57 AM 37.9425 -111.7572 107° East 483 556 35,000  Level Salt Lake Center
Tue 03:18:57 AM 37.8947 -111.5600 107° East 486 559 35,000 50 Level Salt Lake Center
Tue 03:19:58 AM 37.8544 -111.3953 107° East 489 563 35,100 51 Climbing Salt Lake Center
Tue 03:20:54 AM 37.8206 -111.2617 108° East 491 565 35,100 -52 Level Denver Center
Tue 03:21:54 AM 37.7794 -111.0983 108° East 488 562 35,000 -15 Descending Denver Center
Tue 03:27:45 AM 37.5310 -110.1180 108° East 488 562 35,000  Level FlightAware ADS-B
Tue 03:28:26 AM 37.5020 -110.0090 109° East 488 562 35,000  Level FlightAware ADS-B
Tue 03:29:07 AM 37.4750 -109.9000 107° East 489 563 35,000  Level FlightAware ADS-B
Tue 03:29:52 AM 37.4470 -109.7780 106° East 486 559 35,000  Level FlightAware ADS-B
Tue 03:30:32 AM 37.4200 -109.6670 107° East 485 558 35,000  Level FlightAware ADS-B
Tue 03:31:17 AM 37.3910 -109.5480 107° East 485 558 35,000  Level FlightAware ADS-B
Tue 03:31:57 AM 37.3650 -109.4430 107° East 488 562 35,000  Level FlightAware ADS-B
Tue 03:32:38 AM 37.3390 -109.3400 108° East 489 563 35,000  Level FlightAware ADS-B
Tue 03:33:15 AM 37.3190 -109.2540 106° East 489 563 35,000  Level FlightAware ADS-B
Tue 03:34:14 AM 37.2730 -109.0720 108° East 491 565 35,000  Level FlightAware ADS-B
Tue 03:34:59 AM 37.2410 -108.9430 107° East 489 563 35,000  Level FlightAware ADS-B
Tue 03:35:34 AM 37.2180 -108.8530 108° East 489 563 35,000  Level FlightAware ADS-B
Tue 03:36:50 AM 37.1680 -108.6550 108° East 493 567 35,000  Level FlightAware ADS-B
Tue 03:37:30 AM 37.1390 -108.5390 107° East 495 570 35,000 86 Level FlightAware ADS-B
Tue 03:38:00 AM 37.1170 -108.4520 108° East 494 568 35,100  Climbing FlightAware ADS-B
Tue 03:38:41 AM 37.0890 -108.3440 108° East 491 565 35,000 -73 Descending FlightAware ADS-B
Tue 03:39:22 AM 37.0610 -108.2360 108° East 489 563 35,000  Level FlightAware ADS-B
Tue 03:40:02 AM 37.0320 -108.1250 108° East 489 563 35,000  Level FlightAware ADS-B
Tue 03:40:52 AM 36.9970 -107.9900 108° East 488 562 35,000  Level FlightAware ADS-B
Tue 03:41:32 AM 36.9720 -107.8850 107° East 488 562 35,000  Level FlightAware ADS-B
Tue 03:42:12 AM 36.9450 -107.7740 107° East 487 560 35,000  Level FlightAware ADS-B
Tue 03:42:52 AM 36.9200 -107.6690 107° East 487 560 35,000  Level FlightAware ADS-B
Tue 03:43:37 AM 36.8900 -107.5470 107° East 490 564 35,000  Level FlightAware ADS-B
Tue 03:44:22 AM 36.8610 -107.4270 107° East 490 564 35,000 71 Level FlightAware ADS-B
Tue 03:45:02 AM 36.8340 -107.3200 107° East 487 560 35,100  Climbing FlightAware ADS-B
Tue 03:45:52 AM 36.8010 -107.1830 107° East 485 558 35,000 -67 Descending FlightAware ADS-B
Tue 03:46:32 AM 36.7740 -107.0770 108° East 483 556 35,000  Level FlightAware ADS-B
Tue 03:47:17 AM 36.7450 -106.9620 107° East 481 554 35,000  Level FlightAware ADS-B
Tue 03:47:53 AM 36.7230 -106.8720 107° East 480 552 35,000  Level FlightAware ADS-B
Tue 03:49:27 AM 36.6950 -106.7600 107° East 480 552 35,000  Level FlightAware ADS-B
Tue 03:50:06 AM 36.6740 -106.6720 107° East 480 552 35,000  Level FlightAware ADS-B
Tue 03:50:44 AM 36.6060 -106.4120 108° East 477 549 35,000  Level FlightAware ADS-B
Tue 03:51:31 AM 36.5760 -106.2940 108° East 472 543 35,000  Level FlightAware ADS-B
Tue 03:52:07 AM 36.5520 -106.2010 108° East 471 542 35,000  Level FlightAware ADS-B
Tue 03:52:55 AM 36.5190 -106.0720 108° East 476 548 35,000  Level FlightAware ADS-B
Tue 03:53:35 AM 36.4910 -105.9710 109° East 477 549 35,000  Level FlightAware ADS-B
Tue 03:54:12 AM 36.4620 -105.8810 112° Southeast 477 549 35,000  Level FlightAware ADS-B
Tue 03:55:02 AM 36.4280 -105.7720 111° Southeast 477 549 35,000 69 Level FlightAware ADS-B
Tue 03:55:39 AM 36.3900 -105.6570 112° Southeast 472 543 35,100 81 Climbing FlightAware ADS-B
Tue 03:56:16 AM 36.3650 -105.5770 111° Southeast 472 543 35,100  Level FlightAware ADS-B
Tue 03:57:06 AM 36.3320 -105.4690 111° Southeast 472 543 35,100  Level FlightAware ADS-B
Tue 03:57:42 AM 36.3080 -105.3920 111° Southeast 472 543 35,100  Level FlightAware ADS-B
Tue 03:58:30 AM 36.2760 -105.2890 111° Southeast 472 543 35,100  Level FlightAware ADS-B
Tue 03:59:07 AM 36.2510 -105.2090 111° Southeast 472 543 35,100  Level FlightAware ADS-B
Tue 03:59:54 AM 36.2200 -105.1080 111° Southeast 472 543 35,100  Level FlightAware ADS-B
Tue 04:00:29 AM 36.1970 -105.0330 111° Southeast 472 543 35,100  Level FlightAware ADS-B
Tue 04:01:17 AM 36.1650 -104.9300 111° Southeast 472 543 35,100  Level FlightAware ADS-B
Tue 04:01:55 AM 36.1390 -104.8490 112° Southeast 472 543 35,100  Level FlightAware ADS-B
Tue 04:02:44 AM 36.1070 -104.7440 111° Southeast 472 543 35,100  Level FlightAware ADS-B
Tue 04:03:20 AM 36.0830 -104.6660 111° Southeast 472 543 35,100  Level FlightAware ADS-B
Tue 04:04:08 AM 36.0510 -104.5630 111° Southeast 472 543 35,100  Level FlightAware ADS-B
Tue 04:04:44 AM 36.0270 -104.4860 111° Southeast 472 543 35,100  Level FlightAware ADS-B
Tue 04:05:32 AM 35.9950 -104.3830 111° Southeast 472 543 35,100 615 Level FlightAware ADS-B
Tue 04:06:02 AM 35.9456 -104.1156 111° Southeast 471 542 35,900 1,067 Climbing Albuquerque Center
Tue 04:07:02 AM 35.8975 -103.9617 111° Southeast 474 545 36,700 550 Climbing Albuquerque Center
Tue 04:08:02 AM 35.8456 -103.8097 113° Southeast 475 547 37,000 149 Climbing Albuquerque Center
Tue 04:09:03 AM 35.7928 -103.6606 114° Southeast 471 542 37,000  Level Albuquerque Center
Tue 04:10:03 AM 35.7411 -103.5150 114° Southeast 463 533 37,000  Level Albuquerque Center
Tue 04:11:03 AM 35.6908 -103.3708 113° Southeast 456 525 37,000  Level Albuquerque Center
Tue 04:12:04 AM 35.6383 -103.2250 114° Southeast 458 527 37,000  Level Albuquerque Center
Tue 04:13:04 AM 35.5864 -103.0803 114° Southeast 459 528 37,000  Level Albuquerque Center
Tue 04:15:00 AM 35.4763 -102.8144 115° Southeast  Level FlightAware Approximate
Tue 04:15:05 AM 35.4803 -102.7856 114° Southeast 467 537 37,000  Level Albuquerque Center
Tue 04:16:05 AM 35.4269 -102.6381 114° Southeast 468 539 37,000  Level Albuquerque Center
Tue 04:17:06 AM 35.3817 -102.5172 115° Southeast 466 536 37,000  Level Albuquerque Center
Tue 04:18:06 AM 35.3283 -102.3725 114° Southeast 466 536 37,000  Level Albuquerque Center
Tue 04:19:07 AM 35.2642 -102.2008 115° Southeast 465 535 37,000  Level Albuquerque Center
Tue 04:20:07 AM 35.2122 -102.0589 114° Southeast 462 532 37,000  Level Albuquerque Center
Tue 04:21:07 AM 35.1675 -101.9358 114° Southeast 463 533 37,000  Level Albuquerque Center
Tue 04:22:00 AM 35.1066 -101.8373 114° Southeast  Level FlightAware Approximate
Tue 04:22:08 AM 35.1144 -101.7914 114° Southeast 462 532 37,000  Level Albuquerque Center
Tue 04:23:00 AM 35.0548 -101.6975 114° Southeast  Level FlightAware Approximate
Tue 04:23:08 AM 35.0519 -101.6256 115° Southeast 463 533 37,000  Level Albuquerque Center
Tue 04:24:00 AM 35.0029 -101.5579 114° Southeast  Level FlightAware Approximate
Tue 04:24:08 AM 34.9978 -101.4811 115° Southeast 466 536 37,000  Level Albuquerque Center
Tue 04:25:09 AM 34.9483 -101.3511 115° Southeast 468 539 37,000  Level Albuquerque Center
Tue 04:26:09 AM 34.8942 -101.2069 115° Southeast 470 541 37,000  Level Albuquerque Center
Tue 04:31:37 AM 34.5860 -100.4100 115° Southeast 464 534 37,000  Level FlightAware ADS-B
Tue 04:32:21 AM 34.5490 -100.3140 115° Southeast 464 534 37,000  Level FlightAware ADS-B
Tue 04:32:57 AM 34.5210 -100.2420 115° Southeast 464 534 37,000  Level FlightAware ADS-B
Tue 04:33:44 AM 34.4690 -100.1110 116° Southeast 469 540 37,000  Level FlightAware ADS-B
Tue 04:34:43 AM 34.4210 -99.9870 115° Southeast 468 539 37,000  Level FlightAware ADS-B
Tue 04:35:21 AM 34.3790 -99.8820 116° Southeast 467 537 37,000  Level FlightAware ADS-B
Tue 04:36:04 AM 34.3370 -99.7790 116° Southeast 469 540 37,000  Level FlightAware ADS-B
Tue 04:36:45 AM 34.3000 -99.6850 115° Southeast 469 540 37,000 73 Level FlightAware ADS-B
Tue 04:37:26 AM 34.2600 -99.5840 116° Southeast 466 536 37,100  Climbing FlightAware ADS-B
Tue 04:38:12 AM 34.2170 -99.4780 116° Southeast 464 534 37,000 -69 Descending FlightAware ADS-B
Tue 04:38:53 AM 34.1790 -99.3830 116° Southeast 462 532 37,000  Level FlightAware ADS-B
Tue 04:39:34 AM 34.1410 -99.2900 116° Southeast 461 531 37,000  Level FlightAware ADS-B
Tue 04:40:11 AM 34.1130 -99.2160 115° Southeast 461 531 37,000 -1,453 Level FlightAware ADS-B
Tue 04:41:09 AM 34.0550 -99.0750 116° Southeast 471 542 34,700 -1,453 Descending FlightAware ADS-B
Tue 04:41:46 AM 34.0250 -99.0010 116° Southeast 471 542 34,700  Level FlightAware ADS-B
Tue 04:42:32 AM 33.9870 -98.9090 116° Southeast 471 542 34,700 -3,843 Level FlightAware ADS-B
Tue 04:43:15 AM 33.9320 -98.7750 116° Southeast 452 520 29,000 -4,267 Descending FlightAware ADS-B
Tue 04:44:02 AM 33.8940 -98.6810 116° Southeast 450 518 28,300 -1,107 Descending FlightAware ADS-B
Tue 04:44:58 AM 33.8460 -98.5630 116° Southeast 444 511 27,100 -2,617 Descending FlightAware ADS-B
Tue 04:45:36 AM 33.8040 -98.4650 117° Southeast 429 494 24,200 -3,111 Descending FlightAware ADS-B
Tue 04:46:19 AM 33.7670 -98.3790 117° Southeast 415 478 22,900 -1,935 Descending FlightAware ADS-B
Tue 04:47:09 AM 33.7230 -98.2760 117° Southeast 402 463 21,200 -2,087 Descending FlightAware ADS-B
Tue 04:47:51 AM 33.6870 -98.1910 117° Southeast 410 472 19,700 -2,169 Descending FlightAware ADS-B
Tue 04:48:32 AM 33.6530 -98.1110 117° Southeast 402 463 18,200 -2,283 Descending FlightAware ADS-B
Tue 04:49:23 AM 33.6100 -98.0070 116° Southeast 396 456 16,200 -2,176 Descending FlightAware ADS-B
Tue 04:50:03 AM 33.5760 -97.9310 118° Southeast 386 444 14,900 -1,786 Descending FlightAware ADS-B
Tue 04:50:47 AM 33.5390 -97.8480 118° Southeast 377 434 13,700 -1,373 Descending FlightAware ADS-B
Tue 04:51:26 AM 33.5070 -97.7770 118° Southeast 369 425 13,000 -1,012 Descending FlightAware ADS-B
Tue 04:52:10 AM 33.4720 -97.7000 119° Southeast 363 418 12,300 -889 Descending FlightAware ADS-B
Tue 04:52:47 AM 33.4420 -97.6400 121° Southeast 356 410 11,800 -907 Descending FlightAware ADS-B
Tue 04:53:36 AM 33.4020 -97.5570 120° Southeast 316 364 11,000 -1,146 Descending FlightAware ADS-B
Tue 04:54:16 AM 33.3750 -97.5000 120° Southeast 284 327 10,100 -1,676 Descending FlightAware ADS-B
Tue 04:54:44 AM 33.3570 -97.4620 120° Southeast 282 325 9,100 -2,154 Descending FlightAware ADS-B
Tue 04:54:55 AM 33.3500 -97.4480 121° Southeast 280 322 8,700 -1,953 Descending FlightAware ADS-B
Tue 04:55:27 AM 33.3290 -97.4050 120° Southeast 275 316 7,700 -1,600 Descending FlightAware ADS-B
Tue 04:55:55 AM 33.3120 -97.3690 119° Southeast 270 311 7,100 -1,309 Descending FlightAware ADS-B
Tue 04:56:22 AM 33.2950 -97.3340 120° Southeast 264 304 6,500 -1,179 Descending FlightAware ADS-B
Tue 04:56:51 AM 33.2770 -97.2970 120° Southeast 261 300 6,000 -857 Descending FlightAware ADS-B
Tue 04:57:18 AM 33.2560 -97.2690 132° Southeast 244 281 5,700 -679 Descending FlightAware ADS-B
Tue 04:57:44 AM 33.2360 -97.2470 137° Southeast 229 264 5,400 -931 Descending FlightAware ADS-B
Tue 04:58:16 AM 33.2110 -97.2190 137° Southeast 224 258 4,800 -1,179 Descending FlightAware ADS-B
Tue 04:58:40 AM 33.1930 -97.1980 136° Southeast 222 255 4,300 -906 Descending FlightAware ADS-B
Tue 04:59:09 AM 33.1710 -97.1740 138° Southeast 223 257 4,000 -429 Descending FlightAware ADS-B
Tue 04:59:36 AM 33.1510 -97.1520 137° Southeast 221 254 3,900 -577 Descending FlightAware ADS-B
Tue 05:00:01 AM 33.1330 -97.1310 136° Southeast 211 243 3,500 -906 Descending FlightAware ADS-B
Tue 05:00:29 AM 33.1130 -97.1090 137° Southeast 205 236 3,100 -566 Descending FlightAware ADS-B
Tue 05:00:54 AM 33.0960 -97.0900 137° Southeast 202 232 3,000 -111 Descending FlightAware ADS-B
Tue 05:01:23 AM 33.0760 -97.0680 137° Southeast 203 234 3,000  Level FlightAware ADS-B
Tue 05:01:52 AM 33.0560 -97.0460 137° Southeast 199 229 3,000  Level FlightAware ADS-B
Tue 05:02:05 AM 33.0480 -97.0370 137° Southeast 186 214 3,000 -222 Level FlightAware ADS-B
Tue 05:02:19 AM 33.0380 -97.0310 153° Southeast 165 190 2,900 -857 Descending FlightAware ADS-B
Tue 05:02:47 AM 33.0180 -97.0290 175° South 158 182 2,400 -878 Descending FlightAware ADS-B
Tue 05:03:00 AM 33.0080 -97.0290 180° South 152 175 2,300 -682 Descending FlightAware ADS-B
Tue 05:03:31 AM 32.9880 -97.0300 182° South 139 160 1,900 -737 Descending FlightAware ADS-B
Tue 05:03:57 AM 32.9720 -97.0300 180° South 124 143 1,600 -615 Descending FlightAware ADS-B
Tue 05:04:10 AM 32.9640 -97.0300 180° South 122 140 1,500 -511 Descending FlightAware ADS-B
Tue 05:04:44 AM 32.9500 -97.0333 180° South 120 138 1,200 -529 Descending Dallas / Fort Worth TRACON
Tue 05:06:00 AM 32.8968 -97.0380 140° Southeast  Level Estimated
Tue 05:13:00 AM 32.8968 -97.0380 140° Southeast  Level Estimated
Tue 05:14:00 AM 32.8968 -97.0380 140° Southeast  Level Estimated
Tue 05:15:00 AM 32.8968 -97.0380 140° Southeast  Level Estimated
Tue 05:16:00 AM 32.8968 -97.0380 140° Southeast  Level Estimated
Tue 05:17:00 AM 32.8968 -97.0380 140° Southeast  Level Estimated
Tue 05:18:00 AM 32.8968 -97.0380 140° Southeast  Level Estimated
Tue 05:19:00 AM 32.8968 -97.0380 140° Southeast  Level Estimated

Login

Don't have an account? Register now (free) for customized features, flight alerts, and more!